createdAt,value
2022-09-10T00:02:32.703Z,100.00
2022-09-10T00:07:34.857Z,100.00
2022-09-10T00:12:37.222Z,100.00
2022-09-10T00:17:39.464Z,100.00
2022-09-10T00:22:41.803Z,100.00
2022-09-10T00:27:43.882Z,100.00
2022-09-10T00:32:49.886Z,100.00
2022-09-10T00:37:52.649Z,100.00
2022-09-10T00:42:58.168Z,100.00
2022-09-10T00:48:06.162Z,100.00
2022-09-10T00:53:13.557Z,100.00
2022-09-10T00:58:18.692Z,100.00
2022-09-10T01:03:25.401Z,100.00
2022-09-10T01:08:28.135Z,100.00
2022-09-10T01:13:33.725Z,100.00
2022-09-10T01:18:39.982Z,100.00
2022-09-10T01:24:13.811Z,100.00
2022-09-10T01:29:35.999Z,100.00
2022-09-10T01:34:47.740Z,100.00
2022-09-10T01:39:53.099Z,100.00
2022-09-10T01:44:58.257Z,100.00
2022-09-10T01:50:24.462Z,100.00
2022-09-10T01:55:34.613Z,100.00
2022-09-10T02:00:43.044Z,100.00
2022-09-10T02:05:50.334Z,100.00
2022-09-10T02:10:54.399Z,100.00
2022-09-10T02:15:59.831Z,100.00
2022-09-10T02:21:10.673Z,100.00
2022-09-10T02:26:14.794Z,100.00
2022-09-10T02:31:18.908Z,100.00
2022-09-10T02:36:22.288Z,100.00
2022-09-10T02:41:26.218Z,100.00
2022-09-10T02:46:30.539Z,100.00
2022-09-10T02:51:33.362Z,100.00
2022-09-10T02:56:35.751Z,100.00
2022-09-10T03:01:39.088Z,100.00
2022-09-10T03:06:44.108Z,100.00
2022-09-10T03:11:46.788Z,100.00
2022-09-10T03:16:49.924Z,100.00
2022-09-10T03:21:53.224Z,100.00
2022-09-10T03:26:55.466Z,100.00
2022-09-10T03:31:58.129Z,100.00
2022-09-10T03:37:00.532Z,100.00
2022-09-10T03:42:05.455Z,100.00
2022-09-10T03:47:08.220Z,100.00
2022-09-10T03:52:13.348Z,100.00
2022-09-10T03:57:17.763Z,100.00
2022-09-10T04:02:20.282Z,100.00
2022-09-10T04:07:22.772Z,100.00
2022-09-10T04:12:27.293Z,100.00
2022-09-10T04:17:29.813Z,100.00
2022-09-10T04:22:32.112Z,100.00
2022-09-10T04:27:35.617Z,100.00
2022-09-10T04:32:38.695Z,100.00
2022-09-10T04:37:40.969Z,100.00
2022-09-10T04:42:45.035Z,100.00
2022-09-10T04:47:47.826Z,100.00
2022-09-10T04:52:50.028Z,100.00
2022-09-10T04:57:53.212Z,100.00
2022-09-10T05:02:55.707Z,100.00
2022-09-10T05:08:00.466Z,100.00
2022-09-10T05:13:03.530Z,100.00
2022-09-10T05:18:07.798Z,100.00
2022-09-10T05:23:12.786Z,100.00
2022-09-10T05:28:18.802Z,100.00
2022-09-10T05:33:21.559Z,100.00
2022-09-10T05:38:25.042Z,100.00
2022-09-10T05:43:28.560Z,100.00
2022-09-10T05:48:31.963Z,69.52
2022-09-10T05:53:34.479Z,49.01
2022-09-10T05:58:36.682Z,39.04
2022-09-10T06:03:40.865Z,37.92
2022-09-10T06:08:43.744Z,41.11
2022-09-10T06:13:53.648Z,48.41
2022-09-10T06:18:57.517Z,55.05
2022-09-10T06:24:02.552Z,60.90
2022-09-10T06:29:08.791Z,69.62
2022-09-10T06:34:13.723Z,73.99
2022-09-10T06:44:42.531Z,70.71
2022-09-10T06:49:59.231Z,71.49
2022-09-10T06:55:01.830Z,75.35
2022-09-10T07:00:14.434Z,71.14
2022-09-10T07:05:20.149Z,72.40
2022-09-10T07:10:23.221Z,72.06
2022-09-10T07:15:28.356Z,64.91
2022-09-10T07:20:31.265Z,63.05
2022-09-10T07:25:34.596Z,67.43
2022-09-10T07:30:44.728Z,70.80
2022-09-10T07:35:49.201Z,72.87
2022-09-10T07:40:54.498Z,79.75
2022-09-10T07:46:00.004Z,80.43
2022-09-10T07:51:09.100Z,78.34
2022-09-10T07:56:11.872Z,74.21
2022-09-10T08:01:16.426Z,71.16
2022-09-10T08:06:19.588Z,70.17
2022-09-10T08:11:24.300Z,66.67
2022-09-10T08:16:29.560Z,69.02
2022-09-10T08:21:38.082Z,70.40
2022-09-10T08:26:41.367Z,71.02
2022-09-10T08:31:43.761Z,73.84
2022-09-10T08:37:04.504Z,73.02
2022-09-10T08:42:24.916Z,66.79
2022-09-10T08:48:14.666Z,59.37
2022-09-10T08:53:52.041Z,51.13
2022-09-10T08:59:05.291Z,52.72
2022-09-10T09:04:52.556Z,54.85
2022-09-10T09:09:55.136Z,49.95
2022-09-10T09:15:17.564Z,47.88
2022-09-10T09:20:43.291Z,43.11
2022-09-10T09:25:59.247Z,38.14
2022-09-10T09:31:10.690Z,37.72
2022-09-10T09:36:19.631Z,37.39
2022-09-10T09:41:39.553Z,35.92
2022-09-10T09:46:42.771Z,34.33
2022-09-10T09:51:48.536Z,33.31
2022-09-10T09:56:52.586Z,33.89
2022-09-10T10:01:58.916Z,32.48
2022-09-10T10:07:02.497Z,32.83
2022-09-10T10:12:18.793Z,34.01
2022-09-10T10:17:35.743Z,34.19
2022-09-10T10:22:40.841Z,32.16
2022-09-10T10:27:45.518Z,32.23
2022-09-10T10:33:04.172Z,32.05
2022-09-10T10:38:13.711Z,32.14
2022-09-10T10:43:42.768Z,33.49
2022-09-10T10:49:03.613Z,34.61
2022-09-10T10:54:20.108Z,36.72
2022-09-10T10:59:51.324Z,40.66
2022-09-10T11:05:01.629Z,43.61
2022-09-10T11:10:20.109Z,42.85
2022-09-10T11:15:31.251Z,36.95
2022-09-10T11:20:42.775Z,37.22
2022-09-10T11:26:00.715Z,35.48
2022-09-10T11:31:17.639Z,36.22
2022-09-10T11:36:29.772Z,38.14
2022-09-10T11:41:32.941Z,37.40
2022-09-10T11:46:57.823Z,37.92
2022-09-10T11:52:02.320Z,37.58
2022-09-10T11:57:12.739Z,37.88
2022-09-10T12:02:33.010Z,38.20
2022-09-10T12:08:03.273Z,39.83
2022-09-10T12:13:13.292Z,39.30
2022-09-10T12:18:45.267Z,40.76
2022-09-10T12:23:47.886Z,40.42
2022-09-10T12:28:49.888Z,39.50
2022-09-10T12:33:51.865Z,38.74
2022-09-10T12:39:20.196Z,38.18
2022-09-10T12:44:42.285Z,39.34
2022-09-10T12:49:57.375Z,38.83
2022-09-10T12:55:32.144Z,38.00
2022-09-10T13:00:46.893Z,40.12
2022-09-10T18:25:33.425Z,100.00
2022-09-10T18:30:35.775Z,100.00
2022-09-10T18:35:37.985Z,100.00
2022-09-10T18:40:40.980Z,100.00
2022-09-10T18:45:43.026Z,100.00
2022-09-10T18:50:45.250Z,100.00
2022-09-10T18:55:47.362Z,100.00
2022-09-10T19:00:49.392Z,100.00
2022-09-10T19:05:51.584Z,100.00
2022-09-10T19:10:59.240Z,100.00
2022-09-10T19:16:03.400Z,100.00
2022-09-10T19:21:08.337Z,100.00
2022-09-10T19:26:13.162Z,100.00
2022-09-10T19:31:20.785Z,100.00
2022-09-10T19:36:23.575Z,100.00
2022-09-10T19:41:26.114Z,100.00
2022-09-10T19:46:28.847Z,100.00
2022-09-10T19:51:34.469Z,100.00
2022-09-10T19:56:42.568Z,100.00
2022-09-10T20:01:46.304Z,100.00
2022-09-10T20:06:50.515Z,100.00
2022-09-10T20:11:52.622Z,100.00
2022-09-10T20:16:54.959Z,100.00
2022-09-10T20:21:57.108Z,100.00
2022-09-10T20:27:01.543Z,100.00
2022-09-10T20:32:03.862Z,100.00
2022-09-10T20:37:06.079Z,100.00
2022-09-10T20:42:33.580Z,100.00
2022-09-10T20:47:43.150Z,100.00
2022-09-10T20:52:45.394Z,100.00
2022-09-10T20:57:47.615Z,100.00
2022-09-10T21:02:51.650Z,100.00
2022-09-10T21:07:56.644Z,100.00
2022-09-10T21:12:58.962Z,100.00
2022-09-10T21:18:01.204Z,100.00
2022-09-10T21:23:05.161Z,100.00
2022-09-10T21:28:07.384Z,100.00
2022-09-10T21:33:09.654Z,100.00
2022-09-10T21:38:12.864Z,100.00
2022-09-10T21:43:14.997Z,100.00
2022-09-10T21:48:17.122Z,100.00
2022-09-10T21:53:19.279Z,100.00
2022-09-10T21:58:21.390Z,100.00
2022-09-10T22:03:23.613Z,100.00
2022-09-10T22:08:26.288Z,100.00
2022-09-10T22:13:28.645Z,100.00
2022-09-10T22:18:30.712Z,100.00
2022-09-10T22:23:35.441Z,100.00
2022-09-10T22:28:38.579Z,100.00
2022-09-10T22:33:43.506Z,100.00
2022-09-10T22:38:59.478Z,100.00
2022-09-10T22:44:02.687Z,100.00
2022-09-10T22:49:05.515Z,100.00
2022-09-10T22:54:08.489Z,100.00
2022-09-10T22:59:14.152Z,100.00
2022-09-10T23:04:16.596Z,100.00
2022-09-10T23:09:18.925Z,100.00
2022-09-10T23:14:22.200Z,100.00
2022-09-10T23:19:25.417Z,100.00
2022-09-10T23:24:28.434Z,100.00
2022-09-10T23:29:30.521Z,100.00
2022-09-10T23:34:32.621Z,100.00
2022-09-10T23:39:35.000Z,100.00
2022-09-10T23:44:37.238Z,100.00
2022-09-10T23:49:39.488Z,100.00
2022-09-10T23:54:41.976Z,100.00
2022-09-10T23:59:44.481Z,100.00
